»·PEaware :: N2211 KSBP-KLGB

N2211 :: KSBP-KLGB

FLIGHT INFORMATION

Flight Status: Arrived
Operator: Privately registered:
United States
More flights under this callsign
Pilot: Mike H. (866)
Aircraft: BEECH AIRCRAFT A90-E90 KING AIR
(BE9L)
More flights by this aircraft type
Origin: KSBP San Luis Co Regl
United States
Destination: KLGB Long Beach
United States
More flights between these airports :: More routes between these airports
Route: RZS VTU V208 SXC SLI
File this flight plan on PilotEdge
Remarks: / V /
Altitude:
(Current/Filed)
9,000ft
Speed:
(Current/Filed)
230kts
Departed: 22-Mar-14 07:47 PM
Arrived: 22-Mar-14 08:49 PM
Distance/Time
Traveled:
149nm/1:02
Distance/Time
To Go:
Arrived

Flight Plot

Page will automatically refresh every two minutes.


Map Options




Map Legend


Flown Route
Filed Route
Departure Airport
Arrival Airport
Navaid (VOR, NDB)
Fix

Horizontal Profiles

Position Reports

Time Latitude Longitude Heading Altitude Ground
Speed
22-Mar-14 19:19 35.238542 -120.639859 205 217ft 0kts
22-Mar-14 19:20 35.238542 -120.639859 205 217ft 0kts
22-Mar-14 19:21 35.238541 -120.639860 205 217ft 0kts
22-Mar-14 19:22 35.238540 -120.639860 205 217ft 0kts
22-Mar-14 19:23 35.238539 -120.639861 205 217ft 0kts
22-Mar-14 19:24 35.238538 -120.639861 205 217ft 0kts
22-Mar-14 19:25 35.238537 -120.639862 205 217ft 0kts
22-Mar-14 19:26 35.238536 -120.639863 205 217ft 0kts
22-Mar-14 19:27 35.238535 -120.639863 205 217ft 0kts
22-Mar-14 19:28 35.238534 -120.639864 205 217ft 0kts
22-Mar-14 19:29 35.238533 -120.639864 205 217ft 0kts
22-Mar-14 19:30 35.238532 -120.639865 205 217ft 0kts
22-Mar-14 19:31 35.238531 -120.639866 205 217ft 0kts
22-Mar-14 19:32 35.238530 -120.639866 205 217ft 0kts
22-Mar-14 19:33 35.238529 -120.639867 205 217ft 0kts
22-Mar-14 19:34 35.238528 -120.639867 205 217ft 0kts
22-Mar-14 19:35 35.238527 -120.639868 205 217ft 0kts
22-Mar-14 19:36 35.238524 -120.639870 205 217ft 0kts
22-Mar-14 19:37 35.235853 -120.636529 121 217ft 27kts
22-Mar-14 19:38 35.233248 -120.632521 227 217ft 0kts
22-Mar-14 19:39 35.233245 -120.632525 227 217ft 0kts
22-Mar-14 19:40 35.233144 -120.633707 305 217ft 22kts
22-Mar-14 19:41 35.247209 -120.660575 302 1185ft 114kts
22-Mar-14 19:42 35.264187 -120.696305 299 2439ft 127kts
22-Mar-14 19:43 35.249658 -120.730283 177 3609ft 164kts
22-Mar-14 19:44 35.215291 -120.694925 132 4856ft 168kts
22-Mar-14 19:45 35.184254 -120.651841 133 6026ft 168kts
22-Mar-14 19:46 35.150632 -120.608722 133 7120ft 172kts
22-Mar-14 19:47 35.117069 -120.565656 132 8230ft 174kts
22-Mar-14 19:48 35.082636 -120.521045 130 8986ft 196kts
22-Mar-14 19:49 35.041893 -120.469069 133 8995ft 219kts
22-Mar-14 19:50 34.997951 -120.414977 133 9060ft 224kts
22-Mar-14 19:51 34.956293 -120.357083 125 9042ft 227kts
22-Mar-14 19:52 34.914947 -120.298162 131 9040ft 228kts
22-Mar-14 19:53 34.871667 -120.241442 131 9042ft 229kts
22-Mar-14 19:54 34.828137 -120.184617 131 9039ft 229kts
22-Mar-14 19:55 34.784567 -120.127817 131 9035ft 229kts
22-Mar-14 19:56 34.740956 -120.071042 131 9031ft 229kts
22-Mar-14 19:57 34.697338 -120.014353 131 9024ft 229kts
22-Mar-14 19:58 34.653863 -119.957943 131 9024ft 229kts
22-Mar-14 19:59 34.610227 -119.901419 131 9022ft 229kts
22-Mar-14 20:00 34.566515 -119.844889 131 9019ft 229kts
22-Mar-14 20:01 34.522770 -119.788411 131 9016ft 229kts
22-Mar-14 20:02 34.485265 -119.726329 121 9016ft 228kts
22-Mar-14 20:03 34.449875 -119.662321 121 9016ft 228kts
22-Mar-14 20:04 34.415118 -119.598201 121 9016ft 228kts
22-Mar-14 20:05 34.391231 -119.555767 121 9013ft 228kts
22-Mar-14 20:05 34.368934 -119.512402 118 9005ft 227kts
22-Mar-14 20:06 34.347268 -119.467849 118 8993ft 227kts
22-Mar-14 20:07 34.314035 -119.402435 120 8960ft 227kts
22-Mar-14 20:08 34.277637 -119.340026 124 8997ft 226kts
22-Mar-14 20:09 34.241324 -119.277944 122 9018ft 225kts
22-Mar-14 20:10 34.206753 -119.214349 120 9012ft 225kts
22-Mar-14 20:11 34.172190 -119.150614 121 8986ft 227kts
22-Mar-14 20:12 34.136158 -119.087919 122 8973ft 226kts
22-Mar-14 20:13 34.084564 -119.053178 176 9115ft 226kts
22-Mar-14 20:14 34.020164 -119.047388 172 9001ft 233kts
22-Mar-14 20:15 33.955956 -119.035276 169 8969ft 233kts
22-Mar-14 20:16 33.891828 -119.025630 172 9019ft 230kts
22-Mar-14 20:17 33.827669 -119.018348 174 9024ft 230kts
22-Mar-14 20:18 33.773729 -118.985494 128 9025ft 227kts
22-Mar-14 20:19 33.732321 -118.928164 129 9038ft 226kts
22-Mar-14 20:20 33.697148 -118.881263 130 9028ft 227kts
22-Mar-14 20:21 33.655520 -118.824132 126 9011ft 227kts
22-Mar-14 20:22 33.616834 -118.764074 125 8991ft 227kts
22-Mar-14 20:23 33.569481 -118.695944 127 8961ft 226kts
22-Mar-14 20:24 33.535859 -118.647745 129 8990ft 225kts
22-Mar-14 20:25 33.494192 -118.591194 128 9020ft 225kts
22-Mar-14 20:26 33.455442 -118.532145 127 9046ft 226kts
22-Mar-14 20:27 33.414552 -118.474471 129 9005ft 228kts
22-Mar-14 20:28 33.412711 -118.410156 43 9044ft 220kts
22-Mar-14 20:29 33.461169 -118.364577 34 9041ft 221kts
22-Mar-14 20:30 33.510970 -118.320811 35 9028ft 221kts
22-Mar-14 20:31 33.560882 -118.277409 35 8999ft 221kts
22-Mar-14 20:32 33.605381 -118.227848 69 8656ft 224kts
22-Mar-14 20:33 33.596023 -118.156700 103 7239ft 221kts
22-Mar-14 20:34 33.581408 -118.085498 103 5753ft 216kts
22-Mar-14 20:35 33.594898 -118.023033 39 4217ft 214kts
22-Mar-14 20:36 33.642975 -117.990888 346 2973ft 201kts
22-Mar-14 20:37 33.693292 -118.009550 341 2405ft 178kts
22-Mar-14 20:38 33.730409 -118.045252 315 2011ft 164kts
22-Mar-14 20:39 33.754924 -118.074786 308 1520ft 108kts
22-Mar-14 20:40 33.774143 -118.098738 313 1138ft 100kts
22-Mar-14 20:41 33.794563 -118.123325 313 598ft 105kts
22-Mar-14 20:42 33.813433 -118.146103 314 65ft 78kts
22-Mar-14 20:43 33.818866 -118.153713 268 65ft 0kts
22-Mar-14 20:44 33.818861 -118.153914 268 65ft 3kts
22-Mar-14 20:45 33.818862 -118.156972 274 65ft 11kts
22-Mar-14 20:46 33.817702 -118.157910 277 65ft 0kts
22-Mar-14 20:47 33.817702 -118.157913 277 65ft 0kts
22-Mar-14 20:48 33.817702 -118.157913 277 65ft 0kts
22-Mar-14 20:49 33.817702 -118.157913 277 65ft 0kts

Navigation Log

Ident Type
Flight plan parsing failed, navigation log unavailable